createdAt,value
2019-04-05T00:00:15.217Z,66.9
2019-04-05T00:03:15.607Z,67.9
2019-04-05T00:06:15.046Z,67.6
2019-04-05T00:09:15.334Z,67.7
2019-04-05T00:12:15.792Z,67.6
2019-04-05T00:15:16.071Z,68.3
2019-04-05T00:18:14.995Z,67.9
2019-04-05T00:21:15.021Z,67.8
2019-04-05T00:24:15.172Z,68.0
2019-04-05T00:27:15.708Z,68.0
2019-04-05T00:30:15.414Z,68.8
2019-04-05T00:33:15.972Z,68.5
2019-04-05T00:36:15.832Z,68.8
2019-04-05T00:39:15.396Z,68.3
2019-04-05T00:42:15.804Z,67.8
2019-04-05T00:45:27.522Z,68.0
2019-04-05T00:48:15.879Z,68.6
2019-04-05T00:51:15.803Z,68.2
2019-04-05T00:54:15.303Z,68.3
2019-04-05T00:57:15.096Z,68.6
2019-04-05T01:00:15.430Z,68.7
2019-04-05T01:03:15.653Z,68.2
2019-04-05T01:06:15.096Z,68.2
2019-04-05T01:09:15.740Z,67.9
2019-04-05T01:12:15.421Z,68.2
2019-04-05T01:15:15.730Z,67.3
2019-04-05T01:18:15.681Z,67.6
2019-04-05T01:21:15.447Z,67.9
2019-04-05T01:24:15.405Z,68.0
2019-04-05T01:27:15.088Z,67.7
2019-04-05T01:30:15.660Z,68.1
2019-04-05T01:33:15.223Z,67.9
2019-04-05T01:36:15.378Z,67.7
2019-04-05T01:39:15.491Z,68.1
2019-04-05T01:42:15.008Z,66.9
2019-04-05T01:45:15.736Z,67.5
2019-04-05T01:48:15.694Z,67.4
2019-04-05T01:54:15.741Z,67.2
2019-04-05T01:57:15.193Z,67.1
2019-04-05T02:00:15.366Z,66.8
2019-04-05T02:03:15.015Z,67.1
2019-04-05T02:06:14.942Z,67.2
2019-04-05T02:09:15.543Z,67.4
2019-04-05T02:12:15.115Z,66.6
2019-04-05T02:15:15.239Z,67.1
2019-04-05T02:18:15.664Z,66.7
2019-04-05T02:24:15.661Z,67.6
2019-04-05T02:27:15.519Z,67.6
2019-04-05T02:30:15.079Z,67.5
2019-04-05T02:33:15.531Z,67.1
2019-04-05T02:36:15.267Z,66.9
2019-04-05T02:39:15.623Z,65.5
2019-04-05T02:42:15.608Z,65.1
2019-04-05T02:45:15.197Z,65.3
2019-04-05T02:48:15.286Z,66.6
2019-04-05T02:54:15.086Z,66.9
2019-04-05T02:57:14.960Z,67.2
2019-04-05T03:00:15.687Z,67.5
2019-04-05T03:03:15.127Z,67.0
2019-04-05T03:06:15.269Z,66.7
2019-04-05T03:09:15.231Z,67.1
2019-04-05T03:12:18.943Z,66.8
2019-04-05T03:15:15.222Z,66.6
2019-04-05T03:18:15.294Z,67.2
2019-04-05T03:24:15.388Z,66.8
2019-04-05T03:27:15.829Z,66.5
2019-04-05T03:30:15.778Z,67.0
2019-04-05T03:33:15.473Z,66.8
2019-04-05T03:36:15.553Z,67.3
2019-04-05T03:39:15.885Z,67.5
2019-04-05T03:42:15.289Z,67.5
2019-04-05T03:45:15.773Z,67.0
2019-04-05T03:48:15.073Z,67.3
2019-04-05T03:54:15.427Z,66.8
2019-04-05T03:57:15.051Z,66.7
2019-04-05T04:00:14.990Z,66.5
2019-04-05T04:03:15.133Z,66.9
2019-04-05T04:06:15.369Z,66.2
2019-04-05T04:09:15.085Z,66.3
2019-04-05T04:12:15.251Z,66.5
2019-04-05T04:15:15.183Z,66.9
2019-04-05T04:18:15.588Z,66.6
2019-04-05T04:21:15.409Z,66.9
2019-04-05T04:24:15.549Z,66.9
2019-04-05T04:27:15.040Z,66.9
2019-04-05T04:30:15.947Z,66.5
2019-04-05T04:33:15.999Z,67.0
2019-04-05T04:36:15.582Z,67.7
2019-04-05T04:39:15.876Z,67.3
2019-04-05T04:42:15.052Z,67.5
2019-04-05T04:45:15.394Z,67.0
2019-04-05T04:48:15.298Z,67.7
2019-04-05T04:51:15.837Z,67.2
2019-04-05T04:54:15.035Z,67.5
2019-04-05T04:57:15.736Z,67.9
2019-04-05T05:00:15.755Z,67.4
2019-04-05T05:03:15.178Z,67.7
2019-04-05T05:06:15.519Z,67.2
2019-04-05T05:09:15.592Z,67.2
2019-04-05T05:12:15.026Z,67.6
2019-04-05T05:15:15.701Z,67.5
2019-04-05T05:18:15.790Z,67.4
2019-04-05T05:21:15.334Z,67.6
2019-04-05T05:24:15.688Z,66.8
2019-04-05T05:27:15.451Z,66.9
2019-04-05T05:30:15.456Z,66.9
2019-04-05T05:33:15.410Z,66.3
2019-04-05T05:36:16.014Z,66.3
2019-04-05T05:39:15.695Z,66.5
2019-04-05T05:42:15.619Z,66.4
2019-04-05T05:45:15.703Z,66.7
2019-04-05T05:48:15.765Z,66.8
2019-04-05T05:51:15.789Z,66.5
2019-04-05T05:54:15.757Z,65.8
2019-04-05T05:57:15.860Z,65.9
2019-04-05T06:00:15.071Z,66.6
2019-04-05T06:03:16.741Z,66.6
2019-04-05T06:06:15.942Z,66.5
2019-04-05T06:09:14.961Z,66.4
2019-04-05T06:12:15.148Z,66.4
2019-04-05T06:15:15.630Z,66.0
2019-04-05T06:18:15.616Z,65.6
2019-04-05T06:21:15.530Z,65.4
2019-04-05T06:24:15.494Z,65.2
2019-04-05T06:27:15.073Z,64.7
2019-04-05T06:30:15.280Z,64.3
2019-04-05T06:33:15.830Z,64.0
2019-04-05T06:36:15.300Z,64.3
2019-04-05T06:39:15.676Z,64.0
2019-04-05T06:42:15.575Z,63.7
2019-04-05T06:45:15.309Z,63.8
2019-04-05T06:48:19.464Z,63.3
2019-04-05T06:51:15.582Z,63.4
2019-04-05T06:54:15.476Z,63.5
2019-04-05T06:57:15.350Z,63.0
2019-04-05T07:00:15.751Z,63.1
2019-04-05T07:03:15.707Z,62.9
2019-04-05T07:06:15.568Z,62.8
2019-04-05T07:09:15.488Z,62.7
2019-04-05T07:12:15.632Z,62.7
2019-04-05T07:15:15.508Z,62.6
2019-04-05T07:18:15.720Z,62.6
2019-04-05T07:21:17.302Z,62.5
2019-04-05T07:24:15.465Z,62.2
2019-04-05T07:27:15.292Z,61.6
2019-04-05T07:30:15.881Z,62.0
2019-04-05T07:33:15.073Z,61.4
2019-04-05T07:36:15.263Z,61.0
2019-04-05T07:39:15.768Z,61.0
2019-04-05T07:42:15.781Z,61.4
2019-04-05T07:45:15.711Z,60.8
2019-04-05T07:48:15.406Z,60.9
2019-04-05T07:51:15.090Z,60.7
2019-04-05T07:54:15.306Z,60.5
2019-04-05T07:57:15.748Z,60.2
2019-04-05T08:00:15.932Z,60.2
2019-04-05T08:03:15.996Z,59.8
2019-04-05T08:06:15.847Z,59.4
2019-04-05T08:09:15.225Z,58.2
2019-04-05T08:12:15.245Z,57.5
2019-04-05T08:15:15.843Z,57.9
2019-04-05T08:18:15.242Z,58.1
2019-04-05T08:21:15.516Z,58.0
2019-04-05T08:24:15.560Z,57.8
2019-04-05T08:27:15.044Z,57.9
2019-04-05T08:30:15.101Z,57.2
2019-04-05T08:33:15.202Z,56.5
2019-04-05T08:36:15.283Z,56.3
2019-04-05T08:39:15.192Z,55.5
2019-04-05T08:42:15.330Z,53.6
2019-04-05T08:45:15.614Z,54.3
2019-04-05T08:48:15.767Z,54.9
2019-04-05T08:51:15.714Z,53.2
2019-04-05T08:54:15.673Z,54.1
2019-04-05T08:57:15.926Z,53.4
2019-04-05T09:00:15.871Z,53.3
2019-04-05T09:03:15.691Z,54.1
2019-04-05T09:06:15.504Z,52.7
2019-04-05T09:09:15.741Z,53.2
2019-04-05T09:12:15.630Z,53.1
2019-04-05T09:15:15.836Z,50.8
2019-04-05T09:18:15.660Z,51.5
2019-04-05T09:21:17.763Z,52.0
2019-04-05T09:24:15.729Z,53.0
2019-04-05T09:27:15.736Z,51.9
2019-04-05T09:30:15.386Z,51.7
2019-04-05T09:33:15.673Z,51.4
2019-04-05T09:36:15.779Z,52.2
2019-04-05T09:39:16.014Z,53.8
2019-04-05T09:42:15.880Z,53.4
2019-04-05T09:45:15.842Z,53.4
2019-04-05T09:48:16.044Z,53.6
2019-04-05T09:51:16.923Z,53.3
2019-04-05T09:54:15.779Z,54.1
2019-04-05T09:57:15.607Z,54.1
2019-04-05T10:00:15.728Z,54.6
2019-04-05T10:03:15.710Z,55.8
2019-04-05T10:06:15.440Z,55.2
2019-04-05T10:09:15.937Z,54.2
2019-04-05T10:12:15.158Z,54.6
2019-04-05T10:15:15.429Z,54.3
2019-04-05T10:18:15.851Z,55.0
2019-04-05T10:21:15.888Z,54.1
2019-04-05T10:24:15.352Z,54.2
2019-04-05T10:27:15.589Z,54.4
2019-04-05T10:30:15.274Z,54.8
2019-04-05T10:33:15.137Z,54.3
2019-04-05T10:36:15.479Z,54.2
2019-04-05T10:39:15.990Z,53.7
2019-04-05T10:42:15.308Z,53.1
2019-04-05T10:45:15.566Z,53.2
2019-04-05T10:48:15.721Z,52.7
2019-04-05T10:51:15.989Z,53.4
2019-04-05T10:54:15.079Z,52.5
2019-04-05T10:57:15.985Z,51.9
2019-04-05T11:00:16.010Z,51.7
2019-04-05T11:03:15.863Z,52.8
2019-04-05T11:06:15.240Z,52.5
2019-04-05T11:09:16.024Z,52.6
2019-04-05T11:12:15.516Z,52.4
2019-04-05T11:15:15.399Z,52.4
2019-04-05T11:18:15.820Z,53.1
2019-04-05T11:21:16.276Z,53.1
2019-04-05T11:24:15.835Z,52.3
2019-04-05T11:27:15.105Z,52.4
2019-04-05T11:30:15.870Z,52.3
2019-04-05T11:33:15.521Z,51.9
2019-04-05T11:36:15.158Z,51.7
2019-04-05T11:39:15.599Z,51.3
2019-04-05T11:42:15.404Z,50.6
2019-04-05T11:45:15.924Z,50.9
2019-04-05T11:48:15.764Z,50.7
2019-04-05T11:51:15.661Z,51.0
2019-04-05T11:54:18.318Z,51.2
2019-04-05T11:57:15.996Z,50.9
2019-04-05T12:00:15.891Z,50.7
2019-04-05T12:03:15.589Z,51.1
2019-04-05T12:06:15.818Z,51.2
2019-04-05T12:09:15.413Z,51.6
2019-04-05T12:12:15.541Z,51.2
2019-04-05T12:15:15.735Z,52.0
2019-04-05T12:18:19.136Z,51.6
2019-04-05T12:21:15.048Z,53.0
2019-04-05T12:24:15.612Z,52.3
2019-04-05T12:27:15.525Z,52.3
2019-04-05T12:30:15.625Z,52.6
2019-04-05T12:33:19.324Z,52.2
2019-04-05T12:36:15.880Z,52.3
2019-04-05T12:39:15.550Z,52.6
2019-04-05T12:42:15.852Z,52.3
2019-04-05T12:45:15.573Z,52.7
2019-04-05T12:48:16.535Z,52.1
2019-04-05T12:51:16.296Z,53.0
2019-04-05T12:54:14.975Z,53.4
2019-04-05T12:57:15.555Z,52.7
2019-04-05T13:00:15.741Z,52.6
2019-04-05T13:03:15.342Z,52.9
2019-04-05T13:06:15.138Z,53.2
2019-04-05T13:09:15.803Z,53.6
2019-04-05T13:12:15.706Z,53.8
2019-04-05T13:15:17.146Z,54.5
2019-04-05T13:18:15.812Z,54.3
2019-04-05T13:21:15.683Z,54.7
2019-04-05T13:24:15.685Z,54.5
2019-04-05T13:27:15.233Z,54.7
2019-04-05T13:30:18.310Z,55.3
2019-04-05T13:33:15.211Z,55.7
2019-04-05T13:36:15.703Z,56.0
2019-04-05T13:39:15.276Z,55.8
2019-04-05T13:42:15.839Z,55.8
2019-04-05T13:45:15.932Z,56.6
2019-04-05T13:48:15.227Z,56.0
2019-04-05T13:51:27.311Z,56.4
2019-04-05T13:54:15.463Z,57.2
2019-04-05T13:57:15.744Z,56.8
2019-04-05T14:00:18.213Z,57.2
2019-04-05T14:03:15.140Z,56.8
2019-04-05T14:06:15.904Z,56.5
2019-04-05T14:09:15.945Z,56.0
2019-04-05T14:12:15.341Z,55.9
2019-04-05T14:15:16.025Z,55.9
2019-04-05T14:18:15.533Z,56.0
2019-04-05T14:21:15.811Z,56.0
2019-04-05T14:24:15.161Z,56.4
2019-04-05T14:27:15.885Z,55.9
2019-04-05T14:30:15.822Z,56.4
2019-04-05T14:33:15.531Z,56.5
2019-04-05T14:36:15.621Z,56.5
2019-04-05T14:39:15.683Z,56.3
2019-04-05T14:42:15.881Z,56.9
2019-04-05T14:45:15.468Z,56.1
2019-04-05T14:48:15.489Z,56.7
2019-04-05T14:51:15.510Z,55.9
2019-04-05T14:54:15.059Z,57.2
2019-04-05T14:57:15.457Z,55.9
2019-04-05T15:00:15.835Z,55.4
2019-04-05T15:03:15.724Z,55.7
2019-04-05T15:06:15.501Z,55.6
2019-04-05T15:09:15.717Z,55.9
2019-04-05T15:12:14.876Z,56.0
2019-04-05T15:15:15.119Z,56.5
2019-04-05T15:18:15.909Z,56.7
2019-04-05T15:21:15.671Z,57.2
2019-04-05T15:24:16.749Z,57.1
2019-04-05T15:27:15.197Z,57.4
2019-04-05T15:30:15.873Z,58.0
2019-04-05T15:33:15.713Z,58.1
2019-04-05T15:36:15.726Z,58.7
2019-04-05T15:39:15.879Z,58.9
2019-04-05T15:42:15.001Z,58.8
2019-04-05T15:45:16.604Z,59.1
2019-04-05T15:48:15.772Z,59.5
2019-04-05T15:51:15.395Z,59.6
2019-04-05T15:54:14.948Z,59.4
2019-04-05T15:57:15.089Z,59.4
2019-04-05T16:00:15.495Z,60.3
2019-04-05T16:03:15.763Z,59.4
2019-04-05T16:06:15.267Z,58.8
2019-04-05T16:09:15.006Z,58.7
2019-04-05T16:12:15.950Z,59.0
2019-04-05T16:15:15.484Z,59.2
2019-04-05T16:18:15.550Z,59.0
2019-04-05T16:21:15.733Z,59.1
2019-04-05T16:24:15.092Z,59.2
2019-04-05T16:27:15.730Z,59.4
2019-04-05T16:30:15.803Z,59.3
2019-04-05T16:33:15.426Z,59.5
2019-04-05T16:36:15.678Z,59.6
2019-04-05T16:39:15.698Z,59.6
2019-04-05T16:42:15.693Z,59.9
2019-04-05T16:45:15.702Z,59.8
2019-04-05T16:48:15.753Z,59.9
2019-04-05T16:51:16.008Z,60.0
2019-04-05T16:54:15.812Z,60.4
2019-04-05T16:57:15.035Z,59.9
2019-04-05T17:00:15.537Z,59.9
2019-04-05T17:03:15.409Z,60.6
2019-04-05T17:06:14.944Z,60.4
2019-04-05T17:09:15.747Z,60.3
2019-04-05T17:12:15.111Z,60.4
2019-04-05T17:15:15.863Z,60.1
2019-04-05T17:18:15.569Z,60.2
2019-04-05T17:21:15.625Z,61.2
2019-04-05T17:24:15.561Z,61.4
2019-04-05T17:27:15.376Z,61.6
2019-04-05T17:30:15.112Z,62.1
2019-04-05T17:33:15.826Z,62.1
2019-04-05T17:36:15.894Z,62.6
2019-04-05T17:39:15.424Z,62.9
2019-04-05T17:42:15.181Z,63.1
2019-04-05T17:45:15.022Z,63.7
2019-04-05T17:48:15.730Z,64.0
2019-04-05T17:51:15.731Z,64.3
2019-04-05T17:54:14.994Z,65.3
2019-04-05T17:57:15.837Z,65.2
2019-04-05T18:00:15.142Z,66.0
2019-04-05T18:03:15.034Z,67.6
2019-04-05T18:06:15.791Z,66.9
2019-04-05T18:09:15.954Z,66.3
2019-04-05T18:12:15.352Z,66.8
2019-04-05T18:15:14.970Z,68.3
2019-04-05T18:18:15.896Z,68.6
2019-04-05T18:21:15.681Z,68.4
2019-04-05T18:24:15.885Z,67.7
2019-04-05T18:27:15.283Z,69.0
2019-04-05T18:30:15.785Z,69.7
2019-04-05T18:33:15.913Z,69.9
2019-04-05T18:36:15.075Z,67.6
2019-04-05T18:39:15.771Z,68.6
2019-04-05T18:42:15.102Z,69.0
2019-04-05T18:45:15.900Z,67.1
2019-04-05T18:48:14.973Z,69.7
2019-04-05T18:51:15.755Z,68.5
2019-04-05T18:54:15.875Z,67.8
2019-04-05T18:57:15.132Z,69.2
2019-04-05T19:00:15.787Z,68.5
2019-04-05T19:03:14.972Z,69.0
2019-04-05T19:06:15.681Z,68.8
2019-04-05T19:09:15.835Z,68.1
2019-04-05T19:12:15.905Z,68.3
2019-04-05T19:15:15.262Z,68.4
2019-04-05T19:18:15.122Z,69.3
2019-04-05T19:21:15.203Z,68.9
2019-04-05T19:24:15.825Z,70.1
2019-04-05T19:27:15.295Z,69.1
2019-04-05T19:48:30.635Z,70.2
2019-04-05T19:51:15.829Z,69.4
2019-04-05T19:54:15.133Z,69.9
2019-04-05T19:57:15.794Z,70.5
2019-04-05T20:00:15.973Z,70.5
2019-04-05T20:03:15.509Z,71.0
2019-04-05T20:06:15.243Z,71.1
2019-04-05T20:09:16.007Z,71.4
2019-04-05T20:12:15.251Z,70.7
2019-04-05T20:15:15.855Z,71.0
2019-04-05T20:18:15.959Z,71.1
2019-04-05T20:21:15.308Z,70.9
2019-04-05T20:24:14.952Z,71.1
2019-04-05T20:27:15.751Z,71.2
2019-04-05T20:30:15.652Z,71.4
2019-04-05T20:33:15.777Z,71.5
2019-04-05T20:36:15.815Z,71.6
2019-04-05T20:39:15.748Z,71.6
2019-04-05T20:42:15.645Z,71.9
2019-04-05T20:45:15.150Z,71.3
2019-04-05T20:48:15.773Z,71.3
2019-04-05T20:51:15.780Z,71.6
2019-04-05T20:54:24.203Z,71.0
2019-04-05T20:57:15.716Z,71.0
2019-04-05T21:00:15.587Z,71.1
2019-04-05T21:03:15.146Z,71.3
2019-04-05T21:06:17.233Z,71.3
2019-04-05T21:09:15.265Z,71.5
2019-04-05T21:12:15.024Z,71.7
2019-04-05T21:15:20.825Z,71.5
2019-04-05T21:18:15.696Z,71.7
2019-04-05T21:21:15.223Z,72.0
2019-04-05T21:24:15.323Z,71.4
2019-04-05T21:27:14.972Z,72.2
2019-04-05T21:30:15.704Z,72.5
2019-04-05T21:33:15.882Z,71.2
2019-04-05T21:36:15.785Z,71.1
2019-04-05T21:39:15.512Z,71.2
2019-04-05T21:42:14.916Z,71.3
2019-04-05T21:45:15.705Z,71.6
2019-04-05T21:48:15.281Z,72.0
2019-04-05T21:51:15.449Z,71.0
2019-04-05T21:54:15.127Z,71.3
2019-04-05T21:57:15.795Z,71.4
2019-04-05T22:00:15.493Z,71.4
2019-04-05T22:03:15.543Z,71.4
2019-04-05T22:06:15.253Z,72.3
2019-04-05T22:09:15.928Z,72.3
2019-04-05T22:12:14.909Z,71.8
2019-04-05T22:15:15.798Z,70.9
2019-04-05T22:18:15.721Z,70.4
2019-04-05T22:21:15.676Z,70.1
2019-04-05T22:24:15.371Z,70.4
2019-04-05T22:27:16.047Z,70.2
2019-04-05T22:30:15.240Z,70.4
2019-04-05T22:33:14.976Z,71.0
2019-04-05T22:36:15.822Z,71.0
2019-04-05T22:39:15.599Z,70.8
2019-04-05T22:42:15.122Z,71.3
2019-04-05T22:45:15.031Z,71.4
2019-04-05T22:48:15.743Z,71.2
2019-04-05T22:51:15.380Z,71.5
2019-04-05T22:54:15.908Z,71.8
2019-04-05T22:57:15.816Z,71.8
2019-04-05T23:00:15.482Z,71.6
2019-04-05T23:03:14.988Z,71.9
2019-04-05T23:06:15.638Z,72.3
2019-04-05T23:09:15.337Z,72.3
2019-04-05T23:12:15.878Z,72.0
2019-04-05T23:15:15.699Z,72.1
2019-04-05T23:18:15.079Z,72.3
2019-04-05T23:21:15.805Z,72.2
2019-04-05T23:24:15.743Z,72.3
2019-04-05T23:27:15.735Z,72.6
2019-04-05T23:30:15.600Z,72.9
2019-04-05T23:33:15.511Z,72.5
2019-04-05T23:36:15.091Z,72.7
2019-04-05T23:39:15.637Z,72.7
2019-04-05T23:42:15.297Z,72.6
2019-04-05T23:45:15.023Z,72.6
2019-04-05T23:48:15.644Z,73.2
2019-04-05T23:51:15.318Z,73.0
2019-04-05T23:54:15.863Z,72.9
2019-04-05T23:57:15.176Z,73.5
